createdAt,value
2023-05-02T00:00:44.818Z,3.15
2023-05-02T00:11:45.916Z,3.15
2023-05-02T00:22:47.195Z,3.14
2023-05-02T00:33:47.993Z,3.14
2023-05-02T00:44:49.557Z,3.13
2023-05-02T00:55:50.323Z,3.13
2023-05-02T01:06:51.310Z,3.13
2023-05-02T01:17:48.666Z,3.12
2023-05-02T01:28:49.849Z,3.12
2023-05-02T01:39:25.379Z,3.10
2023-05-02T01:50:24.144Z,3.10
2023-05-02T02:01:24.760Z,3.10
2023-05-02T02:12:26.263Z,3.10
2023-05-02T02:23:26.341Z,3.10
2023-05-02T02:34:27.689Z,3.10
2023-05-02T02:45:29.598Z,3.09
2023-05-02T02:56:31.549Z,3.09
2023-05-02T03:07:26.639Z,3.09
2023-05-02T03:18:28.394Z,3.09
2023-05-02T03:29:30.072Z,3.08
2023-05-02T03:40:30.284Z,3.08
2023-05-02T03:51:31.572Z,3.08
2023-05-02T04:02:31.556Z,3.07
2023-05-02T04:13:34.029Z,3.07
2023-05-02T04:24:31.648Z,3.08
2023-05-02T04:35:32.678Z,3.08
2023-05-02T04:46:31.581Z,3.09
2023-05-02T04:57:33.091Z,3.10
2023-05-02T05:08:32.253Z,3.10
2023-05-02T05:19:33.730Z,3.11
2023-05-02T05:30:33.769Z,3.13
2023-05-02T05:41:34.082Z,3.14
2023-05-02T05:52:35.351Z,3.15
2023-05-02T06:03:35.688Z,3.15
2023-05-02T06:14:36.600Z,3.16
2023-05-02T06:25:31.841Z,3.17
2023-05-02T06:36:31.640Z,3.18
2023-05-02T06:47:32.492Z,3.21
2023-05-02T06:58:34.612Z,3.22
2023-05-02T07:09:29.953Z,3.25
2023-05-02T07:20:29.640Z,3.29
2023-05-02T07:31:29.764Z,3.32
2023-05-02T07:42:26.095Z,3.34
2023-05-02T07:53:26.442Z,3.32
2023-05-02T08:04:26.994Z,3.32
2023-05-02T08:15:25.920Z,3.32
2023-05-02T08:26:23.304Z,3.32
2023-05-02T08:37:13.928Z,3.33
2023-05-02T08:48:12.205Z,3.33
2023-05-02T08:59:12.741Z,3.34
2023-05-02T09:10:09.206Z,3.34
2023-05-02T09:21:09.595Z,3.33
2023-05-02T09:32:08.585Z,3.33
2023-05-02T09:42:41.600Z,3.34
2023-05-02T09:53:42.570Z,3.33
2023-05-02T10:04:31.893Z,3.35
2023-05-02T10:15:26.570Z,3.34
2023-05-02T10:26:17.297Z,3.34
2023-05-02T10:37:02.975Z,3.33
2023-05-02T10:47:54.311Z,3.34
2023-05-02T10:58:42.448Z,3.34
2023-05-02T11:09:41.439Z,3.34
2023-05-02T11:20:39.536Z,3.33
2023-05-02T11:31:31.016Z,3.34
2023-05-02T11:42:29.370Z,3.33
2023-05-02T11:53:15.482Z,3.36
2023-05-02T12:04:10.965Z,3.36
2023-05-02T12:15:04.319Z,3.34
2023-05-02T12:25:48.963Z,3.34
2023-05-02T12:36:42.077Z,3.34
2023-05-02T12:47:35.516Z,3.35
2023-05-02T12:58:29.416Z,3.38
2023-05-02T13:09:22.622Z,3.37
2023-05-02T13:20:19.467Z,3.37
2023-05-02T13:31:07.330Z,3.34
2023-05-02T13:41:58.866Z,3.34
2023-05-02T13:52:49.407Z,3.34
2023-05-02T14:03:37.603Z,3.36
2023-05-02T14:14:26.834Z,3.34
2023-05-02T14:25:02.835Z,3.38
2023-05-02T14:35:44.879Z,3.34
2023-05-02T14:46:37.244Z,3.34
2023-05-02T14:57:27.327Z,3.34
2023-05-02T15:08:00.552Z,3.36
2023-05-02T15:18:40.326Z,3.37
2023-05-02T15:29:15.935Z,3.36
2023-05-02T15:40:08.563Z,3.37
2023-05-02T15:50:57.670Z,3.34
2023-05-02T16:01:47.260Z,3.34
2023-05-02T16:12:35.670Z,3.33
2023-05-02T16:23:27.006Z,3.32
2023-05-02T16:34:24.348Z,3.31
2023-05-02T16:45:10.313Z,3.30
2023-05-02T16:55:49.421Z,3.29
2023-05-02T17:06:44.204Z,3.28
2023-05-02T17:17:30.006Z,3.26
2023-05-02T17:28:19.716Z,3.25
2023-05-02T17:39:12.798Z,3.25
2023-05-02T17:49:58.729Z,3.23
2023-05-02T18:00:45.300Z,3.22
2023-05-02T18:11:20.354Z,3.21
2023-05-02T18:21:55.142Z,3.19
2023-05-02T18:32:43.881Z,3.19
2023-05-02T18:43:23.182Z,3.17
2023-05-02T18:53:58.349Z,3.16
2023-05-02T19:04:43.293Z,3.16
2023-05-02T19:15:19.078Z,3.15
2023-05-02T19:26:06.405Z,3.15
2023-05-02T19:36:59.287Z,3.14
2023-05-02T19:47:47.296Z,3.14
2023-05-02T19:58:40.899Z,3.14
2023-05-02T20:09:29.651Z,3.13
2023-05-02T20:20:20.049Z,3.13
2023-05-02T20:30:56.087Z,3.11
2023-05-02T20:41:41.713Z,3.11
2023-05-02T20:52:31.838Z,3.11
2023-05-02T21:03:25.587Z,3.11
2023-05-02T21:14:21.804Z,3.10
2023-05-02T21:25:14.339Z,3.10
2023-05-02T21:36:09.714Z,3.10
2023-05-02T21:47:01.840Z,3.09
2023-05-02T21:57:57.572Z,3.09
2023-05-02T22:08:49.868Z,3.09
2023-05-02T22:19:43.990Z,3.09
2023-05-02T22:30:24.106Z,3.07
2023-05-02T22:41:02.665Z,3.07
2023-05-02T22:51:56.172Z,3.06
2023-05-02T23:02:33.883Z,3.05
2023-05-02T23:13:17.154Z,3.05
2023-05-02T23:24:07.803Z,3.05
2023-05-02T23:35:01.099Z,3.05
2023-05-02T23:45:54.811Z,3.05
2023-05-02T23:56:32.124Z,3.03
